createdAt,value
2018-12-13T00:00:33.630Z,99.90
2018-12-13T00:03:02.090Z,99.90
2018-12-13T00:05:30.573Z,99.90
2018-12-13T00:07:59.065Z,99.90
2018-12-13T00:10:27.538Z,99.90
2018-12-13T00:12:55.995Z,99.90
2018-12-13T00:15:27.236Z,99.90
2018-12-13T00:17:55.662Z,99.90
2018-12-13T00:20:24.183Z,99.90
2018-12-13T00:22:52.670Z,99.90
2018-12-13T00:25:21.428Z,99.90
2018-12-13T00:27:49.802Z,99.90
2018-12-13T00:30:18.421Z,99.90
2018-12-13T00:32:46.896Z,99.90
2018-12-13T00:35:15.339Z,99.90
2018-12-13T00:37:43.786Z,99.90
2018-12-13T00:40:12.348Z,99.90
2018-12-13T00:42:40.799Z,99.90
2018-12-13T00:45:09.199Z,99.90
2018-12-13T00:47:38.012Z,99.90
2018-12-13T00:50:06.672Z,99.90
2018-12-13T00:52:35.174Z,99.90
2018-12-13T00:55:03.752Z,99.90
2018-12-13T00:57:32.437Z,99.90
2018-12-13T01:00:00.904Z,99.90
2018-12-13T01:02:29.645Z,99.90
2018-12-13T01:04:58.218Z,99.90
2018-12-13T01:07:26.679Z,99.90
2018-12-13T01:09:55.168Z,99.90
2018-12-13T01:12:23.636Z,99.90
2018-12-13T01:14:52.054Z,99.90
2018-12-13T01:17:20.471Z,99.90
2018-12-13T01:19:48.884Z,99.90
2018-12-13T01:22:17.432Z,99.90
2018-12-13T01:24:45.880Z,99.90
2018-12-13T01:27:14.344Z,99.90
2018-12-13T01:29:42.731Z,99.90
2018-12-13T01:32:11.151Z,99.90
2018-12-13T01:34:39.615Z,99.90
2018-12-13T01:37:08.044Z,99.90
2018-12-13T01:39:36.542Z,99.90
2018-12-13T01:42:05.300Z,99.90
2018-12-13T01:44:34.123Z,99.90
2018-12-13T01:47:02.587Z,99.90
2018-12-13T01:49:31.184Z,99.90
2018-12-13T01:51:59.818Z,99.90
2018-12-13T01:54:28.288Z,99.90
2018-12-13T01:56:56.732Z,99.90
2018-12-13T01:59:25.171Z,99.90
2018-12-13T02:01:53.884Z,99.90
2018-12-13T02:04:22.584Z,99.90
2018-12-13T02:06:51.069Z,99.90
2018-12-13T02:09:19.973Z,99.90
2018-12-13T02:11:48.407Z,99.90
2018-12-13T02:14:16.878Z,99.90
2018-12-13T02:16:45.332Z,99.90
2018-12-13T02:19:13.683Z,99.90
2018-12-13T02:21:42.325Z,99.90
2018-12-13T02:24:10.963Z,99.90
2018-12-13T02:26:39.436Z,99.90
2018-12-13T02:29:07.884Z,99.90
2018-12-13T02:31:36.563Z,99.90
2018-12-13T02:34:05.190Z,99.90
2018-12-13T02:36:33.672Z,99.90
2018-12-13T02:39:02.653Z,99.90
2018-12-13T02:41:31.304Z,99.90
2018-12-13T02:43:59.760Z,99.90
2018-12-13T02:46:28.226Z,99.90
2018-12-13T02:49:08.987Z,99.90
2018-12-13T02:51:37.521Z,99.90
2018-12-13T02:54:06.354Z,99.90
2018-12-13T02:56:34.942Z,99.90
2018-12-13T02:59:03.718Z,99.90
2018-12-13T03:01:32.675Z,99.90
2018-12-13T03:04:01.125Z,99.90
2018-12-13T03:06:29.544Z,99.90
2018-12-13T03:08:57.965Z,99.90
2018-12-13T03:11:26.419Z,99.90
2018-12-13T03:13:54.866Z,99.90
2018-12-13T03:16:23.346Z,99.90
2018-12-13T03:18:52.391Z,99.90
2018-12-13T03:21:20.787Z,99.90
2018-12-13T03:23:49.239Z,99.90
2018-12-13T03:26:18.093Z,99.90
2018-12-13T03:28:46.703Z,99.90
2018-12-13T03:31:15.271Z,99.90
2018-12-13T03:33:44.095Z,99.90
2018-12-13T03:36:12.545Z,99.90
2018-12-13T03:38:40.908Z,99.90
2018-12-13T03:41:09.942Z,99.90
2018-12-13T03:43:38.409Z,99.90
2018-12-13T03:46:06.812Z,99.90
2018-12-13T03:48:35.246Z,99.90
2018-12-13T03:51:03.791Z,99.90
2018-12-13T03:53:32.209Z,99.90
2018-12-13T03:56:00.696Z,99.90
2018-12-13T03:58:29.618Z,99.90
2018-12-13T04:00:58.060Z,99.90
2018-12-13T04:03:26.667Z,99.90
2018-12-13T04:05:55.332Z,99.90
2018-12-13T04:08:23.770Z,99.90
2018-12-13T04:10:52.462Z,99.90
2018-12-13T04:13:20.874Z,99.90
2018-12-13T04:15:49.737Z,99.90
2018-12-13T04:18:18.509Z,99.90
2018-12-13T04:20:46.934Z,99.90
2018-12-13T04:23:15.380Z,99.90
2018-12-13T04:25:44.524Z,99.90
2018-12-13T04:28:13.362Z,99.90
2018-12-13T04:30:41.814Z,99.90
2018-12-13T04:33:10.608Z,99.90
2018-12-13T04:35:39.037Z,99.90
2018-12-13T04:38:07.723Z,99.90
2018-12-13T04:40:36.423Z,99.90
2018-12-13T04:43:04.830Z,99.90
2018-12-13T04:45:33.284Z,99.90
2018-12-13T04:48:01.869Z,99.90
2018-12-13T04:50:30.530Z,99.90
2018-12-13T04:52:58.945Z,99.90
2018-12-13T04:55:27.386Z,99.90
2018-12-13T04:57:55.906Z,99.90
2018-12-13T05:00:24.792Z,99.90
2018-12-13T05:02:53.230Z,99.90
2018-12-13T05:05:21.963Z,99.90
2018-12-13T05:07:50.398Z,99.90
2018-12-13T05:10:29.989Z,99.90
2018-12-13T05:12:58.712Z,99.90
2018-12-13T05:15:27.394Z,99.90
2018-12-13T05:17:55.778Z,99.90
2018-12-13T05:20:24.527Z,99.90
2018-12-13T05:22:53.439Z,99.90
2018-12-13T05:25:22.170Z,99.90
2018-12-13T05:27:50.824Z,99.90
2018-12-13T05:30:19.419Z,99.90
2018-12-13T05:32:48.069Z,99.90
2018-12-13T05:35:16.544Z,99.90
2018-12-13T05:37:48.238Z,99.90
2018-12-13T05:40:15.709Z,99.90
2018-12-13T05:42:44.287Z,99.90
2018-12-13T05:45:12.929Z,99.90
2018-12-13T05:47:41.331Z,99.90
2018-12-13T05:50:09.823Z,99.90
2018-12-13T05:52:38.263Z,99.90
2018-12-13T05:55:08.487Z,99.90
2018-12-13T05:57:37.741Z,99.90
2018-12-13T06:00:07.407Z,99.90
2018-12-13T06:02:36.111Z,99.90
2018-12-13T06:05:05.428Z,99.90
2018-12-13T06:07:33.907Z,99.90
2018-12-13T06:10:02.283Z,99.90
2018-12-13T06:12:30.743Z,99.90
2018-12-13T06:14:59.440Z,99.90
2018-12-13T06:17:28.217Z,99.90
2018-12-13T06:19:56.728Z,99.90
2018-12-13T06:22:25.191Z,99.90
2018-12-13T06:24:53.781Z,99.90
2018-12-13T06:27:22.227Z,99.90
2018-12-13T06:29:50.688Z,99.90
2018-12-13T06:32:19.144Z,99.90
2018-12-13T06:34:47.561Z,99.90
2018-12-13T06:37:15.953Z,99.90
2018-12-13T06:39:44.414Z,99.90
2018-12-13T06:42:12.842Z,99.90
2018-12-13T06:44:41.267Z,99.90
2018-12-13T06:47:09.715Z,99.90
2018-12-13T06:49:38.128Z,99.90
2018-12-13T06:52:06.552Z,99.90
2018-12-13T06:54:35.047Z,99.90
2018-12-13T06:57:03.531Z,99.90
2018-12-13T06:59:31.992Z,99.90
2018-12-13T07:02:00.464Z,99.90
2018-12-13T07:04:29.376Z,99.90
2018-12-13T07:06:58.326Z,99.90
2018-12-13T07:09:27.910Z,99.90
2018-12-13T07:11:56.305Z,99.90
2018-12-13T07:14:24.679Z,99.90
2018-12-13T07:16:53.164Z,99.90
2018-12-13T07:19:21.639Z,99.90
2018-12-13T07:21:50.041Z,99.90
2018-12-13T07:24:18.915Z,99.90
2018-12-13T07:26:47.367Z,99.90
2018-12-13T07:29:15.789Z,99.90
2018-12-13T07:31:44.400Z,99.90
2018-12-13T07:34:13.006Z,99.90
2018-12-13T07:36:41.431Z,99.90
2018-12-13T07:39:09.949Z,99.90
2018-12-13T07:41:38.733Z,99.90
2018-12-13T07:44:07.176Z,99.90
2018-12-13T07:46:35.766Z,99.90
2018-12-13T07:49:04.267Z,99.90
2018-12-13T07:51:32.726Z,99.90
2018-12-13T07:54:01.144Z,99.90
2018-12-13T07:56:29.583Z,99.90
2018-12-13T07:58:58.374Z,99.90
2018-12-13T08:01:26.783Z,99.90
2018-12-13T08:03:55.742Z,99.90
2018-12-13T08:06:24.223Z,99.90
2018-12-13T08:08:52.693Z,99.90
2018-12-13T08:11:21.422Z,99.90
2018-12-13T08:13:49.844Z,99.90
2018-12-13T08:16:18.439Z,99.90
2018-12-13T08:18:46.919Z,99.90
2018-12-13T08:21:15.411Z,99.90
2018-12-13T08:23:43.832Z,99.90
2018-12-13T08:26:12.300Z,99.90
2018-12-13T08:28:40.705Z,99.90
2018-12-13T08:31:09.174Z,99.90
2018-12-13T08:33:37.553Z,99.90
2018-12-13T08:36:06.187Z,99.90
2018-12-13T08:38:34.614Z,99.90
2018-12-13T08:41:03.062Z,99.90
2018-12-13T08:43:31.462Z,99.90
2018-12-13T08:46:00.086Z,99.90
2018-12-13T08:48:28.492Z,99.90
2018-12-13T08:50:57.114Z,99.90
2018-12-13T08:53:25.635Z,99.90
2018-12-13T08:55:54.034Z,99.90
2018-12-13T08:58:22.522Z,99.90
2018-12-13T09:00:51.205Z,99.90
2018-12-13T09:03:19.692Z,99.90
2018-12-13T09:05:48.138Z,99.90
2018-12-13T09:08:16.563Z,99.90
2018-12-13T09:10:45.215Z,99.90
2018-12-13T09:13:13.590Z,99.90
2018-12-13T09:15:42.222Z,99.90
2018-12-13T09:18:12.210Z,99.90
2018-12-13T09:20:41.988Z,99.90
2018-12-13T09:23:10.807Z,99.90
2018-12-13T09:25:39.488Z,99.90
2018-12-13T09:28:08.184Z,99.90
2018-12-13T09:30:36.742Z,99.90
2018-12-13T09:33:05.268Z,99.90
2018-12-13T09:35:33.780Z,99.90
2018-12-13T09:38:02.865Z,99.90
2018-12-13T09:40:31.563Z,99.90
2018-12-13T09:43:00.032Z,99.90
2018-12-13T09:45:28.413Z,99.90
2018-12-13T09:47:58.242Z,99.90
2018-12-13T09:50:27.781Z,99.90
2018-12-13T09:52:57.084Z,99.90
2018-12-13T09:55:26.854Z,99.90
2018-12-13T09:57:55.399Z,99.90
2018-12-13T10:00:26.187Z,99.90
2018-12-13T10:02:54.737Z,99.90
2018-12-13T10:05:23.191Z,99.90
2018-12-13T10:07:51.734Z,99.90
2018-12-13T10:10:20.739Z,99.90
2018-12-13T10:12:49.252Z,99.90
2018-12-13T10:15:19.608Z,99.90
2018-12-13T10:17:50.720Z,99.90
2018-12-13T10:20:19.350Z,99.90
2018-12-13T10:22:47.764Z,99.90
2018-12-13T10:25:16.252Z,99.90
2018-12-13T10:27:44.683Z,99.90
2018-12-13T10:30:13.143Z,99.90
2018-12-13T10:32:44.257Z,99.90
2018-12-13T10:35:12.763Z,99.90
2018-12-13T10:37:42.000Z,99.90
2018-12-13T10:40:11.933Z,99.90
2018-12-13T10:42:40.761Z,99.90
2018-12-13T10:45:09.336Z,99.90
2018-12-13T10:47:37.829Z,99.90
2018-12-13T10:50:07.499Z,99.90
2018-12-13T10:52:36.820Z,99.90
2018-12-13T10:55:06.591Z,99.90
2018-12-13T10:57:36.065Z,99.90
2018-12-13T11:00:07.324Z,99.90
2018-12-13T11:02:51.228Z,99.90
2018-12-13T11:05:19.742Z,99.90
2018-12-13T11:07:48.160Z,99.90
2018-12-13T11:10:16.645Z,99.90
2018-12-13T11:12:45.410Z,99.90
2018-12-13T11:15:14.168Z,99.90
2018-12-13T11:17:42.661Z,99.90
2018-12-13T11:20:11.364Z,99.90
2018-12-13T11:22:39.898Z,99.90
2018-12-13T11:25:08.790Z,99.90
2018-12-13T11:28:17.510Z,99.90
2018-12-13T11:30:46.945Z,99.90
2018-12-13T11:33:15.435Z,99.90
2018-12-13T11:35:43.947Z,99.90
2018-12-13T11:38:13.536Z,99.90
2018-12-13T11:40:42.002Z,99.90
2018-12-13T11:43:10.868Z,99.90
2018-12-13T11:45:39.609Z,99.90
2018-12-13T11:48:08.102Z,99.90
2018-12-13T11:50:36.780Z,99.90
2018-12-13T11:53:05.406Z,99.90
2018-12-13T11:55:36.588Z,99.90
2018-12-13T11:58:07.034Z,99.90
2018-12-13T12:00:35.557Z,99.90
2018-12-13T12:03:04.227Z,99.90
2018-12-13T12:05:33.039Z,99.90
2018-12-13T12:08:01.529Z,99.90
2018-12-13T12:10:30.921Z,99.90
2018-12-13T12:12:59.534Z,99.90
2018-12-13T12:15:28.095Z,99.90
2018-12-13T12:17:56.837Z,99.90
2018-12-13T12:20:25.317Z,99.90
2018-12-13T12:22:53.700Z,99.90
2018-12-13T12:25:22.582Z,99.90
2018-12-13T12:27:51.181Z,99.90
2018-12-13T12:30:19.739Z,99.90
2018-12-13T12:32:48.331Z,99.90
2018-12-13T12:35:16.812Z,99.90
2018-12-13T12:37:45.777Z,99.90
2018-12-13T12:40:14.205Z,99.90
2018-12-13T12:42:42.623Z,99.90
2018-12-13T12:45:11.308Z,99.90
2018-12-13T12:47:39.840Z,99.60
2018-12-13T12:50:09.141Z,99.80
2018-12-13T12:52:37.567Z,99.50
2018-12-13T12:55:06.427Z,98.70
2018-12-13T12:57:34.880Z,99.10
2018-12-13T13:00:03.571Z,98.00
2018-12-13T13:02:32.581Z,97.70
2018-12-13T13:05:01.069Z,98.00
2018-12-13T13:07:29.673Z,99.40
2018-12-13T13:09:58.285Z,99.30
2018-12-13T13:12:26.762Z,98.50
2018-12-13T13:14:55.316Z,98.70
2018-12-13T13:17:23.873Z,98.50
2018-12-13T13:19:52.296Z,98.20
2018-12-13T13:22:20.770Z,98.30
2018-12-13T13:24:49.234Z,97.90
2018-12-13T13:27:18.863Z,98.20
2018-12-13T13:29:47.609Z,97.20
2018-12-13T13:32:16.080Z,97.10
2018-12-13T13:34:44.539Z,97.20
2018-12-13T13:37:13.074Z,97.40
2018-12-13T13:39:41.512Z,96.90
2018-12-13T13:42:10.651Z,96.80
2018-12-13T13:44:39.308Z,97.10
2018-12-13T13:47:07.776Z,98.50
2018-12-13T13:49:36.203Z,98.80
2018-12-13T13:52:04.627Z,98.70
2018-12-13T13:54:33.126Z,99.00
2018-12-13T13:57:01.570Z,99.40
2018-12-13T13:59:30.019Z,99.70
2018-12-13T14:01:58.411Z,99.90
2018-12-13T14:04:26.989Z,99.90
2018-12-13T14:06:55.467Z,99.90
2018-12-13T14:09:24.030Z,99.90
2018-12-13T14:11:52.522Z,99.90
2018-12-13T14:14:21.003Z,99.90
2018-12-13T14:16:50.616Z,99.90
2018-12-13T14:19:20.665Z,99.90
2018-12-13T14:21:49.330Z,99.90
2018-12-13T14:24:17.877Z,99.90
2018-12-13T14:26:46.303Z,99.90
2018-12-13T14:29:14.809Z,99.90
2018-12-13T14:31:43.263Z,99.90
2018-12-13T14:34:11.848Z,99.90
2018-12-13T14:36:40.299Z,99.90
2018-12-13T14:39:08.761Z,99.90
2018-12-13T14:41:37.257Z,99.90
2018-12-13T14:44:05.791Z,99.90
2018-12-13T14:46:34.347Z,99.90
2018-12-13T14:49:02.843Z,99.90
2018-12-13T14:51:31.376Z,99.90
2018-12-13T14:53:59.795Z,99.90
2018-12-13T14:56:29.092Z,99.90
2018-12-13T14:58:57.670Z,99.90
2018-12-13T15:01:26.156Z,99.90
2018-12-13T15:03:54.580Z,99.90
2018-12-13T15:06:23.009Z,99.90
2018-12-13T15:08:51.632Z,99.90
2018-12-13T15:11:20.379Z,99.90
2018-12-13T15:13:48.871Z,99.90
2018-12-13T15:16:17.359Z,99.90
2018-12-13T15:18:45.838Z,99.90
2018-12-13T15:21:15.460Z,99.90
2018-12-13T15:23:44.218Z,99.90
2018-12-13T15:26:12.784Z,99.90
2018-12-13T15:28:41.273Z,99.90
2018-12-13T15:31:09.848Z,99.90
2018-12-13T15:33:38.303Z,99.90
2018-12-13T15:36:07.593Z,99.90
2018-12-13T15:38:36.458Z,99.90
2018-12-13T15:41:05.046Z,99.90
2018-12-13T15:43:33.488Z,99.90
2018-12-13T15:46:01.893Z,99.90
2018-12-13T15:48:30.670Z,99.90
2018-12-13T15:50:59.284Z,99.90
2018-12-13T15:53:27.956Z,99.90
2018-12-13T15:55:56.615Z,99.90
2018-12-13T15:58:25.050Z,99.90
2018-12-13T16:00:53.627Z,99.90
2018-12-13T16:03:22.136Z,99.90
2018-12-13T16:05:50.827Z,99.90
2018-12-13T16:08:19.331Z,99.90
2018-12-13T16:10:48.008Z,99.90
2018-12-13T16:13:16.655Z,99.90
2018-12-13T16:15:45.175Z,99.90
2018-12-13T16:18:13.625Z,99.90
2018-12-13T16:20:42.290Z,99.90
2018-12-13T16:23:19.890Z,99.90
2018-12-13T18:42:52.007Z,99.90
2018-12-13T18:45:23.245Z,99.90
2018-12-13T18:47:51.811Z,99.90
2018-12-13T18:50:20.386Z,99.90
2018-12-13T18:52:48.799Z,99.90
2018-12-13T18:55:17.245Z,99.90
2018-12-13T18:57:46.511Z,99.90
2018-12-13T19:00:15.092Z,99.90
2018-12-13T19:02:43.530Z,99.90
2018-12-13T19:05:12.042Z,99.90
2018-12-13T19:07:40.524Z,99.90
2018-12-13T19:10:08.993Z,99.90
2018-12-13T19:12:37.481Z,99.90
2018-12-13T19:15:07.215Z,99.90
2018-12-13T19:17:35.767Z,99.90
2018-12-13T19:20:04.863Z,99.90
2018-12-13T19:22:33.344Z,99.90
2018-12-13T19:25:02.142Z,99.90
2018-12-13T19:27:40.417Z,99.90
2018-12-13T19:30:09.571Z,99.90
2018-12-13T19:32:38.144Z,99.90
2018-12-13T19:35:06.643Z,99.90
2018-12-13T19:37:35.131Z,99.90
2018-12-13T19:40:03.750Z,99.90
2018-12-13T19:42:32.261Z,99.90
2018-12-13T19:45:00.639Z,99.90
2018-12-13T19:47:45.776Z,99.90
2018-12-13T19:53:11.314Z,99.90
2018-12-13T19:55:40.966Z,99.90
2018-12-13T19:58:09.402Z,99.90
2018-12-13T20:00:37.850Z,99.90
2018-12-13T20:03:06.275Z,99.90
2018-12-13T20:05:34.734Z,99.90
2018-12-13T20:08:03.361Z,99.90
2018-12-13T20:10:31.743Z,99.90
2018-12-13T20:13:00.195Z,99.90
2018-12-13T20:15:28.722Z,99.90
2018-12-13T20:17:57.164Z,99.90
2018-12-13T20:20:25.636Z,99.90
2018-12-13T20:22:54.052Z,99.90
2018-12-13T20:25:22.484Z,99.90
2018-12-13T20:27:50.921Z,99.90
2018-12-13T20:30:19.347Z,99.90
2018-12-13T20:32:47.762Z,99.90
2018-12-13T20:35:16.359Z,99.90
2018-12-13T20:37:44.803Z,99.90
2018-12-13T20:40:13.294Z,99.90
2018-12-13T20:42:41.700Z,99.90
2018-12-13T20:45:10.135Z,99.90
2018-12-13T20:47:38.561Z,99.90
2018-12-13T20:50:07.249Z,99.90
2018-12-13T20:52:35.663Z,99.90
2018-12-13T20:55:04.444Z,99.90
2018-12-13T20:57:32.983Z,99.90
2018-12-13T21:00:01.424Z,99.90
2018-12-13T21:02:29.920Z,99.90
2018-12-13T21:04:58.400Z,99.90
2018-12-13T21:07:32.035Z,99.90
2018-12-13T21:10:00.618Z,99.90
2018-12-13T21:12:29.036Z,99.90
2018-12-13T21:14:57.640Z,99.90
2018-12-13T21:17:26.135Z,99.90
2018-12-13T21:19:54.602Z,99.90
2018-12-13T21:22:23.094Z,99.90
2018-12-13T21:24:51.576Z,99.90
2018-12-13T21:27:20.211Z,99.90
2018-12-13T21:29:48.691Z,99.90
2018-12-13T21:32:17.106Z,99.90
2018-12-13T21:34:45.545Z,99.90
2018-12-13T21:37:13.996Z,99.90
2018-12-13T21:39:42.887Z,99.90
2018-12-13T21:42:11.975Z,99.90
2018-12-13T21:44:40.416Z,99.90
2018-12-13T21:47:08.950Z,99.90
2018-12-13T21:49:37.361Z,99.90
2018-12-13T21:52:06.440Z,99.90
2018-12-13T21:54:35.125Z,99.90
2018-12-13T21:57:03.684Z,99.90
2018-12-13T21:59:32.306Z,99.90
2018-12-13T22:02:00.778Z,99.90
2018-12-13T22:04:29.176Z,99.90
2018-12-13T22:06:57.654Z,99.90
2018-12-13T22:09:26.085Z,99.90
2018-12-13T22:11:54.534Z,99.90
2018-12-13T22:14:23.100Z,99.90
2018-12-13T22:16:51.579Z,99.90
2018-12-13T22:19:20.017Z,99.90
2018-12-13T22:21:48.523Z,99.90
2018-12-13T22:24:17.327Z,99.90
2018-12-13T22:26:45.799Z,99.90
2018-12-13T22:32:05.000Z,99.90
2018-12-13T22:34:33.572Z,99.90
2018-12-13T22:37:02.331Z,99.90
2018-12-13T22:39:31.004Z,99.90
2018-12-13T22:41:59.590Z,99.90
2018-12-13T22:44:28.034Z,99.90
2018-12-13T22:46:56.562Z,99.90
2018-12-13T22:49:25.084Z,99.90
2018-12-13T22:51:53.524Z,99.90
2018-12-13T22:54:22.307Z,99.90
2018-12-13T22:56:50.891Z,99.90
2018-12-13T22:59:19.389Z,99.90
2018-12-13T23:01:47.856Z,99.90
2018-12-13T23:04:16.467Z,99.90
2018-12-13T23:06:44.991Z,99.90
2018-12-13T23:09:13.394Z,99.90
2018-12-13T23:11:42.156Z,99.90
2018-12-13T23:14:10.613Z,99.90
2018-12-13T23:16:39.141Z,99.90
2018-12-13T23:19:07.783Z,99.90
2018-12-13T23:21:36.263Z,99.90
2018-12-13T23:24:04.796Z,99.90
2018-12-13T23:26:33.308Z,99.90
2018-12-13T23:29:01.923Z,99.90
2018-12-13T23:31:30.453Z,99.90
2018-12-13T23:33:59.135Z,99.90
2018-12-13T23:36:27.586Z,99.90
2018-12-13T23:38:56.559Z,99.90
2018-12-13T23:41:25.055Z,99.90
2018-12-13T23:43:53.423Z,99.90
2018-12-13T23:46:21.861Z,99.90
2018-12-13T23:48:50.253Z,99.90
2018-12-13T23:51:19.211Z,99.90
2018-12-13T23:53:48.128Z,99.90
2018-12-13T23:56:16.798Z,99.90
2018-12-13T23:58:45.691Z,99.90
